sensor_id;sensor_type;location;lat;lon;timestamp;temperature;humidity
16966;DHT22;8599;47.852;12.070;2023-05-07T00:00:00;14.20;99.90
16966;DHT22;8599;47.852;12.070;2023-05-07T00:02:27;14.20;99.90
16966;DHT22;8599;47.852;12.070;2023-05-07T00:04:55;14.20;99.90
16966;DHT22;8599;47.852;12.070;2023-05-07T00:07:22;14.20;99.90
16966;DHT22;8599;47.852;12.070;2023-05-07T00:09:48;14.10;99.90
16966;DHT22;8599;47.852;12.070;2023-05-07T00:12:15;14.00;99.90
16966;DHT22;8599;47.852;12.070;2023-05-07T00:14:42;14.00;99.90
16966;DHT22;8599;47.852;12.070;2023-05-07T00:17:09;14.00;99.90
16966;DHT22;8599;47.852;12.070;2023-05-07T00:19:36;14.10;99.90
16966;DHT22;8599;47.852;12.070;2023-05-07T00:22:04;14.10;99.90
16966;DHT22;8599;47.852;12.070;2023-05-07T00:24:30;14.10;99.90
16966;DHT22;8599;47.852;12.070;2023-05-07T00:26:57;14.00;99.90
16966;DHT22;8599;47.852;12.070;2023-05-07T00:29:24;14.00;99.90
16966;DHT22;8599;47.852;12.070;2023-05-07T00:31:51;14.10;99.90
16966;DHT22;8599;47.852;12.070;2023-05-07T00:34:19;14.10;99.90
16966;DHT22;8599;47.852;12.070;2023-05-07T00:36:46;14.20;99.90
16966;DHT22;8599;47.852;12.070;2023-05-07T00:39:14;14.30;99.90
16966;DHT22;8599;47.852;12.070;2023-05-07T00:41:41;14.30;99.90
16966;DHT22;8599;47.852;12.070;2023-05-07T00:44:07;14.30;99.90
16966;DHT22;8599;47.852;12.070;2023-05-07T00:46:34;14.30;99.90
16966;DHT22;8599;47.852;12.070;2023-05-07T00:49:01;14.40;99.90
16966;DHT22;8599;47.852;12.070;2023-05-07T00:51:30;14.40;99.90
16966;DHT22;8599;47.852;12.070;2023-05-07T00:53:57;14.40;99.90
16966;DHT22;8599;47.852;12.070;2023-05-07T00:56:25;14.40;99.90
16966;DHT22;8599;47.852;12.070;2023-05-07T00:58:52;14.40;99.90
16966;DHT22;8599;47.852;12.070;2023-05-07T01:01:18;14.30;99.90
16966;DHT22;8599;47.852;12.070;2023-05-07T01:03:45;14.30;99.90
16966;DHT22;8599;47.852;12.070;2023-05-07T01:06:13;14.30;99.90
16966;DHT22;8599;47.852;12.070;2023-05-07T01:08:42;14.40;99.90
16966;DHT22;8599;47.852;12.070;2023-05-07T01:11:10;14.30;99.90
16966;DHT22;8599;47.852;12.070;2023-05-07T01:13:39;14.30;99.90
16966;DHT22;8599;47.852;12.070;2023-05-07T01:16:08;14.30;99.90
16966;DHT22;8599;47.852;12.070;2023-05-07T01:18:35;14.20;99.90
16966;DHT22;8599;47.852;12.070;2023-05-07T01:21:04;14.10;99.90
16966;DHT22;8599;47.852;12.070;2023-05-07T01:23:33;14.00;99.90
16966;DHT22;8599;47.852;12.070;2023-05-07T01:26:00;14.10;99.90
16966;DHT22;8599;47.852;12.070;2023-05-07T01:28:27;14.10;99.90
16966;DHT22;8599;47.852;12.070;2023-05-07T01:30:57;14.00;99.90
16966;DHT22;8599;47.852;12.070;2023-05-07T01:33:28;14.00;99.90
16966;DHT22;8599;47.852;12.070;2023-05-07T01:35:57;14.00;99.90
16966;DHT22;8599;47.852;12.070;2023-05-07T01:38:26;14.00;99.90
16966;DHT22;8599;47.852;12.070;2023-05-07T01:40:55;13.90;99.90
16966;DHT22;8599;47.852;12.070;2023-05-07T01:43:22;13.90;99.90
16966;DHT22;8599;47.852;12.070;2023-05-07T01:45:49;14.00;99.90
16966;DHT22;8599;47.852;12.070;2023-05-07T01:48:17;13.80;99.90
16966;DHT22;8599;47.852;12.070;2023-05-07T01:50:44;13.80;99.90
16966;DHT22;8599;47.852;12.070;2023-05-07T01:53:11;13.80;99.90
16966;DHT22;8599;47.852;12.070;2023-05-07T01:55:38;13.80;99.90
16966;DHT22;8599;47.852;12.070;2023-05-07T01:58:06;13.80;99.90
16966;DHT22;8599;47.852;12.070;2023-05-07T02:00:33;13.80;99.90
16966;DHT22;8599;47.852;12.070;2023-05-07T02:03:00;13.80;99.90
16966;DHT22;8599;47.852;12.070;2023-05-07T02:05:27;13.90;99.90
16966;DHT22;8599;47.852;12.070;2023-05-07T02:07:53;13.90;99.90
16966;DHT22;8599;47.852;12.070;2023-05-07T02:10:20;13.90;99.90
16966;DHT22;8599;47.852;12.070;2023-05-07T02:12:47;13.90;99.90
16966;DHT22;8599;47.852;12.070;2023-05-07T02:15:15;13.90;99.90
16966;DHT22;8599;47.852;12.070;2023-05-07T02:17:57;13.90;99.90
16966;DHT22;8599;47.852;12.070;2023-05-07T02:20:25;13.90;99.90
16966;DHT22;8599;47.852;12.070;2023-05-07T02:22:52;13.90;99.90
16966;DHT22;8599;47.852;12.070;2023-05-07T02:25:19;13.80;99.90
16966;DHT22;8599;47.852;12.070;2023-05-07T02:27:45;13.80;99.90
16966;DHT22;8599;47.852;12.070;2023-05-07T02:30:14;13.80;99.90
16966;DHT22;8599;47.852;12.070;2023-05-07T02:32:41;13.80;99.90
16966;DHT22;8599;47.852;12.070;2023-05-07T02:35:08;13.80;99.90
16966;DHT22;8599;47.852;12.070;2023-05-07T02:37:35;13.80;99.90
16966;DHT22;8599;47.852;12.070;2023-05-07T02:40:03;13.70;99.90
16966;DHT22;8599;47.852;12.070;2023-05-07T02:42:30;13.70;99.90
16966;DHT22;8599;47.852;12.070;2023-05-07T02:44:56;13.70;99.90
16966;DHT22;8599;47.852;12.070;2023-05-07T02:47:25;13.70;99.90
16966;DHT22;8599;47.852;12.070;2023-05-07T02:49:54;13.70;99.90
16966;DHT22;8599;47.852;12.070;2023-05-07T02:52:20;13.80;99.90
16966;DHT22;8599;47.852;12.070;2023-05-07T02:54:47;13.70;99.90
16966;DHT22;8599;47.852;12.070;2023-05-07T02:57:14;13.80;99.90
16966;DHT22;8599;47.852;12.070;2023-05-07T02:59:41;13.70;99.90
16966;DHT22;8599;47.852;12.070;2023-05-07T03:02:08;13.80;99.90
16966;DHT22;8599;47.852;12.070;2023-05-07T03:04:36;13.70;99.90
16966;DHT22;8599;47.852;12.070;2023-05-07T03:07:03;13.70;99.90
16966;DHT22;8599;47.852;12.070;2023-05-07T03:09:30;13.70;99.90
16966;DHT22;8599;47.852;12.070;2023-05-07T03:11:57;13.70;99.90
16966;DHT22;8599;47.852;12.070;2023-05-07T03:14:24;13.70;99.90
16966;DHT22;8599;47.852;12.070;2023-05-07T03:16:50;13.60;99.90
16966;DHT22;8599;47.852;12.070;2023-05-07T03:19:17;13.70;99.90
16966;DHT22;8599;47.852;12.070;2023-05-07T03:21:45;13.60;99.90
16966;DHT22;8599;47.852;12.070;2023-05-07T03:24:12;13.60;99.90
16966;DHT22;8599;47.852;12.070;2023-05-07T03:26:39;13.60;99.90
16966;DHT22;8599;47.852;12.070;2023-05-07T03:29:06;13.50;99.90
16966;DHT22;8599;47.852;12.070;2023-05-07T03:31:33;13.40;99.90
16966;DHT22;8599;47.852;12.070;2023-05-07T03:34:00;13.40;99.90
16966;DHT22;8599;47.852;12.070;2023-05-07T03:36:29;13.40;99.90
16966;DHT22;8599;47.852;12.070;2023-05-07T03:38:57;13.20;99.90
16966;DHT22;8599;47.852;12.070;2023-05-07T03:41:24;13.10;99.90
16966;DHT22;8599;47.852;12.070;2023-05-07T03:43:51;13.00;99.90
16966;DHT22;8599;47.852;12.070;2023-05-07T03:46:18;13.00;99.90
16966;DHT22;8599;47.852;12.070;2023-05-07T03:48:45;13.00;99.90
16966;DHT22;8599;47.852;12.070;2023-05-07T03:51:11;13.10;99.90
16966;DHT22;8599;47.852;12.070;2023-05-07T03:53:38;13.20;99.90
16966;DHT22;8599;47.852;12.070;2023-05-07T03:56:06;13.20;99.90
16966;DHT22;8599;47.852;12.070;2023-05-07T03:58:33;13.20;99.90
16966;DHT22;8599;47.852;12.070;2023-05-07T04:01:00;13.20;99.90
16966;DHT22;8599;47.852;12.070;2023-05-07T04:03:27;13.20;99.90
16966;DHT22;8599;47.852;12.070;2023-05-07T04:05:54;13.20;99.90
16966;DHT22;8599;47.852;12.070;2023-05-07T04:08:21;13.20;99.90
16966;DHT22;8599;47.852;12.070;2023-05-07T04:10:47;13.20;99.90
16966;DHT22;8599;47.852;12.070;2023-05-07T04:13:15;13.20;99.90
16966;DHT22;8599;47.852;12.070;2023-05-07T04:15:42;13.20;99.90
16966;DHT22;8599;47.852;12.070;2023-05-07T04:18:10;13.20;99.90
16966;DHT22;8599;47.852;12.070;2023-05-07T04:20:37;13.20;99.90
16966;DHT22;8599;47.852;12.070;2023-05-07T04:23:04;13.20;99.90
16966;DHT22;8599;47.852;12.070;2023-05-07T04:25:30;13.20;99.90
16966;DHT22;8599;47.852;12.070;2023-05-07T04:27:57;13.20;99.90
16966;DHT22;8599;47.852;12.070;2023-05-07T04:30:25;13.20;99.90
16966;DHT22;8599;47.852;12.070;2023-05-07T04:32:52;13.30;99.90
16966;DHT22;8599;47.852;12.070;2023-05-07T04:35:19;13.30;99.90
16966;DHT22;8599;47.852;12.070;2023-05-07T04:37:46;13.20;99.90
16966;DHT22;8599;47.852;12.070;2023-05-07T04:40:13;13.20;99.90
16966;DHT22;8599;47.852;12.070;2023-05-07T04:42:40;13.30;99.90
16966;DHT22;8599;47.852;12.070;2023-05-07T04:45:07;13.30;99.90
16966;DHT22;8599;47.852;12.070;2023-05-07T04:47:37;13.30;99.90
16966;DHT22;8599;47.852;12.070;2023-05-07T04:50:04;13.30;99.90
16966;DHT22;8599;47.852;12.070;2023-05-07T04:52:31;13.30;99.90
16966;DHT22;8599;47.852;12.070;2023-05-07T04:54:59;13.30;99.90
16966;DHT22;8599;47.852;12.070;2023-05-07T04:57:26;13.30;99.90
16966;DHT22;8599;47.852;12.070;2023-05-07T04:59:53;13.50;99.90
16966;DHT22;8599;47.852;12.070;2023-05-07T05:02:20;13.60;99.90
16966;DHT22;8599;47.852;12.070;2023-05-07T05:04:48;13.50;99.90
16966;DHT22;8599;47.852;12.070;2023-05-07T05:07:15;13.40;99.90
16966;DHT22;8599;47.852;12.070;2023-05-07T05:09:42;13.40;99.90
16966;DHT22;8599;47.852;12.070;2023-05-07T05:12:08;13.50;99.90
16966;DHT22;8599;47.852;12.070;2023-05-07T05:14:35;13.50;99.90
16966;DHT22;8599;47.852;12.070;2023-05-07T05:17:02;13.60;99.90
16966;DHT22;8599;47.852;12.070;2023-05-07T05:19:29;13.60;99.90
16966;DHT22;8599;47.852;12.070;2023-05-07T05:21:57;13.60;99.90
16966;DHT22;8599;47.852;12.070;2023-05-07T05:24:24;13.60;99.90
16966;DHT22;8599;47.852;12.070;2023-05-07T05:26:53;13.80;99.90
16966;DHT22;8599;47.852;12.070;2023-05-07T05:29:19;13.90;99.90
16966;DHT22;8599;47.852;12.070;2023-05-07T05:31:46;14.00;99.90
16966;DHT22;8599;47.852;12.070;2023-05-07T05:34:13;14.10;99.90
16966;DHT22;8599;47.852;12.070;2023-05-07T05:36:40;14.10;99.90
16966;DHT22;8599;47.852;12.070;2023-05-07T05:39:08;14.10;99.90
16966;DHT22;8599;47.852;12.070;2023-05-07T05:41:35;14.20;99.90
16966;DHT22;8599;47.852;12.070;2023-05-07T05:44:02;14.10;99.90
16966;DHT22;8599;47.852;12.070;2023-05-07T05:46:29;14.00;99.90
16966;DHT22;8599;47.852;12.070;2023-05-07T05:48:56;14.10;99.90
16966;DHT22;8599;47.852;12.070;2023-05-07T05:51:23;14.20;99.90
16966;DHT22;8599;47.852;12.070;2023-05-07T05:53:50;14.30;99.90
16966;DHT22;8599;47.852;12.070;2023-05-07T05:56:19;14.30;99.90
16966;DHT22;8599;47.852;12.070;2023-05-07T05:58:46;14.40;99.90
16966;DHT22;8599;47.852;12.070;2023-05-07T06:01:13;14.30;99.90
16966;DHT22;8599;47.852;12.070;2023-05-07T06:03:40;14.50;99.90
16966;DHT22;8599;47.852;12.070;2023-05-07T06:06:07;14.70;99.90
16966;DHT22;8599;47.852;12.070;2023-05-07T06:08:34;14.60;99.90
16966;DHT22;8599;47.852;12.070;2023-05-07T06:11:01;14.60;99.90
16966;DHT22;8599;47.852;12.070;2023-05-07T06:13:30;14.60;99.90
16966;DHT22;8599;47.852;12.070;2023-05-07T06:15:57;14.70;99.90
16966;DHT22;8599;47.852;12.070;2023-05-07T06:18:23;14.60;99.90
16966;DHT22;8599;47.852;12.070;2023-05-07T06:20:51;14.80;99.90
16966;DHT22;8599;47.852;12.070;2023-05-07T06:23:18;14.80;99.90
16966;DHT22;8599;47.852;12.070;2023-05-07T06:25:48;14.90;99.90
16966;DHT22;8599;47.852;12.070;2023-05-07T06:28:15;15.10;99.90
16966;DHT22;8599;47.852;12.070;2023-05-07T06:30:43;15.00;99.90
16966;DHT22;8599;47.852;12.070;2023-05-07T06:33:10;15.00;99.90
16966;DHT22;8599;47.852;12.070;2023-05-07T06:35:37;15.10;99.90
16966;DHT22;8599;47.852;12.070;2023-05-07T06:38:04;15.20;99.90
16966;DHT22;8599;47.852;12.070;2023-05-07T06:40:30;15.40;99.90
16966;DHT22;8599;47.852;12.070;2023-05-07T06:42:57;15.30;99.90
16966;DHT22;8599;47.852;12.070;2023-05-07T06:45:24;15.40;99.90
16966;DHT22;8599;47.852;12.070;2023-05-07T06:47:52;15.50;99.90
16966;DHT22;8599;47.852;12.070;2023-05-07T06:50:19;15.60;99.90
16966;DHT22;8599;47.852;12.070;2023-05-07T06:52:46;15.70;99.90
16966;DHT22;8599;47.852;12.070;2023-05-07T06:55:13;15.80;99.90
16966;DHT22;8599;47.852;12.070;2023-05-07T06:57:40;15.90;99.90
16966;DHT22;8599;47.852;12.070;2023-05-07T07:00:08;15.90;99.90
16966;DHT22;8599;47.852;12.070;2023-05-07T07:02:35;16.00;99.90
16966;DHT22;8599;47.852;12.070;2023-05-07T07:05:04;16.00;99.90
16966;DHT22;8599;47.852;12.070;2023-05-07T07:07:31;16.00;99.90
16966;DHT22;8599;47.852;12.070;2023-05-07T07:09:58;16.10;99.90
16966;DHT22;8599;47.852;12.070;2023-05-07T07:12:25;16.20;99.90
16966;DHT22;8599;47.852;12.070;2023-05-07T07:14:52;16.20;99.90
16966;DHT22;8599;47.852;12.070;2023-05-07T07:17:18;16.40;99.90
16966;DHT22;8599;47.852;12.070;2023-05-07T07:19:45;16.40;99.90
16966;DHT22;8599;47.852;12.070;2023-05-07T07:22:13;16.50;99.90
16966;DHT22;8599;47.852;12.070;2023-05-07T07:24:40;16.60;99.90
16966;DHT22;8599;47.852;12.070;2023-05-07T07:27:07;16.60;99.90
16966;DHT22;8599;47.852;12.070;2023-05-07T07:29:34;16.70;99.90
16966;DHT22;8599;47.852;12.070;2023-05-07T07:32:00;16.80;99.90
16966;DHT22;8599;47.852;12.070;2023-05-07T07:34:27;16.80;99.90
16966;DHT22;8599;47.852;12.070;2023-05-07T07:36:54;16.80;99.90
16966;DHT22;8599;47.852;12.070;2023-05-07T07:39:23;16.90;99.90
16966;DHT22;8599;47.852;12.070;2023-05-07T07:41:49;17.00;99.90
16966;DHT22;8599;47.852;12.070;2023-05-07T07:44:16;17.10;99.90
16966;DHT22;8599;47.852;12.070;2023-05-07T07:46:43;17.20;99.90
16966;DHT22;8599;47.852;12.070;2023-05-07T07:49:10;17.20;99.90
16966;DHT22;8599;47.852;12.070;2023-05-07T07:51:36;17.30;99.90
16966;DHT22;8599;47.852;12.070;2023-05-07T07:54:03;17.40;99.90
16966;DHT22;8599;47.852;12.070;2023-05-07T07:56:32;17.30;99.90
16966;DHT22;8599;47.852;12.070;2023-05-07T07:59:00;17.40;99.90
16966;DHT22;8599;47.852;12.070;2023-05-07T08:01:27;17.40;99.90
16966;DHT22;8599;47.852;12.070;2023-05-07T08:03:53;17.40;99.90
16966;DHT22;8599;47.852;12.070;2023-05-07T08:06:20;17.50;99.90
16966;DHT22;8599;47.852;12.070;2023-05-07T08:08:47;17.50;99.90
16966;DHT22;8599;47.852;12.070;2023-05-07T08:11:14;17.50;99.90
16966;DHT22;8599;47.852;12.070;2023-05-07T08:13:42;17.60;99.90
16966;DHT22;8599;47.852;12.070;2023-05-07T08:16:10;17.60;99.90
16966;DHT22;8599;47.852;12.070;2023-05-07T08:18:37;17.70;99.90
16966;DHT22;8599;47.852;12.070;2023-05-07T08:21:04;17.60;99.90
16966;DHT22;8599;47.852;12.070;2023-05-07T08:23:31;17.70;99.90
16966;DHT22;8599;47.852;12.070;2023-05-07T08:25:59;17.70;99.90
16966;DHT22;8599;47.852;12.070;2023-05-07T08:28:26;17.70;99.90
16966;DHT22;8599;47.852;12.070;2023-05-07T08:30:54;17.80;99.90
16966;DHT22;8599;47.852;12.070;2023-05-07T08:33:22;17.90;99.90
16966;DHT22;8599;47.852;12.070;2023-05-07T08:35:48;18.00;99.90
16966;DHT22;8599;47.852;12.070;2023-05-07T08:38:15;18.10;99.90
16966;DHT22;8599;47.852;12.070;2023-05-07T08:40:42;18.10;99.90
16966;DHT22;8599;47.852;12.070;2023-05-07T08:43:12;18.10;99.90
16966;DHT22;8599;47.852;12.070;2023-05-07T08:45:40;18.20;99.90
16966;DHT22;8599;47.852;12.070;2023-05-07T08:48:14;18.40;99.90
16966;DHT22;8599;47.852;12.070;2023-05-07T08:50:41;18.40;99.90
16966;DHT22;8599;47.852;12.070;2023-05-07T08:53:08;18.50;99.90
16966;DHT22;8599;47.852;12.070;2023-05-07T08:55:35;18.60;99.90
16966;DHT22;8599;47.852;12.070;2023-05-07T08:58:02;18.50;99.90
16966;DHT22;8599;47.852;12.070;2023-05-07T09:00:29;18.60;99.90
16966;DHT22;8599;47.852;12.070;2023-05-07T09:02:56;18.60;99.90
16966;DHT22;8599;47.852;12.070;2023-05-07T09:05:24;18.80;99.90
16966;DHT22;8599;47.852;12.070;2023-05-07T09:07:51;18.80;99.90
16966;DHT22;8599;47.852;12.070;2023-05-07T09:10:17;18.50;99.90
16966;DHT22;8599;47.852;12.070;2023-05-07T09:12:46;18.60;99.90
16966;DHT22;8599;47.852;12.070;2023-05-07T09:15:13;18.80;99.90
16966;DHT22;8599;47.852;12.070;2023-05-07T09:17:40;18.90;99.90
16966;DHT22;8599;47.852;12.070;2023-05-07T09:20:08;19.10;99.90
16966;DHT22;8599;47.852;12.070;2023-05-07T09:22:38;19.10;99.90
16966;DHT22;8599;47.852;12.070;2023-05-07T09:25:06;19.20;99.90
16966;DHT22;8599;47.852;12.070;2023-05-07T09:27:33;19.30;99.90
16966;DHT22;8599;47.852;12.070;2023-05-07T09:30:03;19.40;99.90
16966;DHT22;8599;47.852;12.070;2023-05-07T09:32:34;19.50;99.90
16966;DHT22;8599;47.852;12.070;2023-05-07T09:35:01;19.60;99.90
16966;DHT22;8599;47.852;12.070;2023-05-07T09:37:28;19.60;99.90
16966;DHT22;8599;47.852;12.070;2023-05-07T09:39:58;19.70;99.90
16966;DHT22;8599;47.852;12.070;2023-05-07T09:42:25;19.80;99.90
16966;DHT22;8599;47.852;12.070;2023-05-07T09:44:52;19.90;99.90
16966;DHT22;8599;47.852;12.070;2023-05-07T09:47:20;20.00;99.90
16966;DHT22;8599;47.852;12.070;2023-05-07T09:49:50;20.00;99.90
16966;DHT22;8599;47.852;12.070;2023-05-07T09:52:21;20.10;99.90
16966;DHT22;8599;47.852;12.070;2023-05-07T09:54:50;20.20;99.90
16966;DHT22;8599;47.852;12.070;2023-05-07T09:57:20;20.40;99.90
16966;DHT22;8599;47.852;12.070;2023-05-07T09:59:48;20.40;99.90
16966;DHT22;8599;47.852;12.070;2023-05-07T10:02:17;20.50;99.90
16966;DHT22;8599;47.852;12.070;2023-05-07T10:04:46;20.60;99.90
16966;DHT22;8599;47.852;12.070;2023-05-07T10:07:13;20.60;99.90
16966;DHT22;8599;47.852;12.070;2023-05-07T10:09:40;20.60;99.90
16966;DHT22;8599;47.852;12.070;2023-05-07T10:12:09;20.70;99.90
16966;DHT22;8599;47.852;12.070;2023-05-07T10:14:37;20.60;99.90
16966;DHT22;8599;47.852;12.070;2023-05-07T10:17:05;20.70;99.90
16966;DHT22;8599;47.852;12.070;2023-05-07T10:19:32;20.80;99.90
16966;DHT22;8599;47.852;12.070;2023-05-07T10:22:04;20.70;99.90
16966;DHT22;8599;47.852;12.070;2023-05-07T10:24:32;20.70;99.90
16966;DHT22;8599;47.852;12.070;2023-05-07T10:27:02;20.80;99.90
16966;DHT22;8599;47.852;12.070;2023-05-07T10:29:35;20.70;99.90
16966;DHT22;8599;47.852;12.070;2023-05-07T10:32:26;20.50;99.90
16966;DHT22;8599;47.852;12.070;2023-05-07T10:34:58;20.50;99.90
16966;DHT22;8599;47.852;12.070;2023-05-07T10:37:28;20.50;99.90
16966;DHT22;8599;47.852;12.070;2023-05-07T10:39:55;20.50;99.90
16966;DHT22;8599;47.852;12.070;2023-05-07T10:42:23;20.70;99.90
16966;DHT22;8599;47.852;12.070;2023-05-07T10:44:50;20.80;99.90
16966;DHT22;8599;47.852;12.070;2023-05-07T10:47:18;21.00;99.90
16966;DHT22;8599;47.852;12.070;2023-05-07T10:50:20;21.10;99.90
16966;DHT22;8599;47.852;12.070;2023-05-07T10:53:22;21.20;99.90
16966;DHT22;8599;47.852;12.070;2023-05-07T10:56:25;21.30;99.90
16966;DHT22;8599;47.852;12.070;2023-05-07T10:58:53;21.40;99.90
16966;DHT22;8599;47.852;12.070;2023-05-07T11:01:50;21.40;99.90
16966;DHT22;8599;47.852;12.070;2023-05-07T11:04:19;21.50;99.90
16966;DHT22;8599;47.852;12.070;2023-05-07T11:10:00;21.80;99.90
16966;DHT22;8599;47.852;12.070;2023-05-07T11:12:53;21.90;99.90
16966;DHT22;8599;47.852;12.070;2023-05-07T11:15:40;21.90;99.90
16966;DHT22;8599;47.852;12.070;2023-05-07T11:18:09;21.90;99.90
16966;DHT22;8599;47.852;12.070;2023-05-07T11:20:58;21.80;99.90
16966;DHT22;8599;47.852;12.070;2023-05-07T11:23:56;21.80;99.90
16966;DHT22;8599;47.852;12.070;2023-05-07T11:26:28;22.10;99.90
16966;DHT22;8599;47.852;12.070;2023-05-07T11:28:55;22.10;99.90
16966;DHT22;8599;47.852;12.070;2023-05-07T11:31:23;22.30;99.90
16966;DHT22;8599;47.852;12.070;2023-05-07T11:33:52;22.50;99.90
16966;DHT22;8599;47.852;12.070;2023-05-07T11:36:22;22.60;99.90
16966;DHT22;8599;47.852;12.070;2023-05-07T11:38:49;22.70;99.90
16966;DHT22;8599;47.852;12.070;2023-05-07T11:41:16;22.90;99.90
16966;DHT22;8599;47.852;12.070;2023-05-07T11:43:58;22.90;99.90
16966;DHT22;8599;47.852;12.070;2023-05-07T11:46:28;23.10;99.90
16966;DHT22;8599;47.852;12.070;2023-05-07T11:48:55;23.20;99.90
16966;DHT22;8599;47.852;12.070;2023-05-07T11:51:24;23.10;99.90
16966;DHT22;8599;47.852;12.070;2023-05-07T11:53:52;22.90;99.90
16966;DHT22;8599;47.852;12.070;2023-05-07T11:56:19;22.80;99.90
16966;DHT22;8599;47.852;12.070;2023-05-07T11:58:47;22.60;99.90
16966;DHT22;8599;47.852;12.070;2023-05-07T12:01:15;22.50;99.90
16966;DHT22;8599;47.852;12.070;2023-05-07T12:03:44;22.30;99.90
16966;DHT22;8599;47.852;12.070;2023-05-07T12:06:12;22.30;99.90
16966;DHT22;8599;47.852;12.070;2023-05-07T12:08:42;22.20;99.90
16966;DHT22;8599;47.852;12.070;2023-05-07T12:11:10;22.20;99.90
16966;DHT22;8599;47.852;12.070;2023-05-07T12:13:37;22.20;99.90
16966;DHT22;8599;47.852;12.070;2023-05-07T12:16:06;22.20;99.90
16966;DHT22;8599;47.852;12.070;2023-05-07T12:18:34;22.30;99.90
16966;DHT22;8599;47.852;12.070;2023-05-07T12:21:01;22.60;99.90
16966;DHT22;8599;47.852;12.070;2023-05-07T12:23:29;22.80;99.90
16966;DHT22;8599;47.852;12.070;2023-05-07T12:25:57;22.80;99.90
16966;DHT22;8599;47.852;12.070;2023-05-07T12:28:25;22.80;99.90
16966;DHT22;8599;47.852;12.070;2023-05-07T12:30:52;22.90;99.90
16966;DHT22;8599;47.852;12.070;2023-05-07T12:33:24;22.90;99.90
16966;DHT22;8599;47.852;12.070;2023-05-07T12:35:54;23.00;99.90
16966;DHT22;8599;47.852;12.070;2023-05-07T12:38:21;23.00;99.90
16966;DHT22;8599;47.852;12.070;2023-05-07T12:40:49;22.90;99.90
16966;DHT22;8599;47.852;12.070;2023-05-07T12:43:19;22.70;99.90
16966;DHT22;8599;47.852;12.070;2023-05-07T12:45:47;22.70;99.90
16966;DHT22;8599;47.852;12.070;2023-05-07T12:48:14;22.80;99.90
16966;DHT22;8599;47.852;12.070;2023-05-07T12:50:41;23.10;99.90
16966;DHT22;8599;47.852;12.070;2023-05-07T12:53:10;23.40;99.90
16966;DHT22;8599;47.852;12.070;2023-05-07T12:55:41;23.40;99.90
16966;DHT22;8599;47.852;12.070;2023-05-07T12:58:15;23.00;99.90
16966;DHT22;8599;47.852;12.070;2023-05-07T13:00:44;22.90;99.90
16966;DHT22;8599;47.852;12.070;2023-05-07T13:03:11;22.80;99.90
16966;DHT22;8599;47.852;12.070;2023-05-07T13:05:38;22.60;99.90
16966;DHT22;8599;47.852;12.070;2023-05-07T13:08:05;22.40;99.90
16966;DHT22;8599;47.852;12.070;2023-05-07T13:10:35;22.20;99.90
16966;DHT22;8599;47.852;12.070;2023-05-07T13:13:01;22.10;99.90
16966;DHT22;8599;47.852;12.070;2023-05-07T13:15:29;22.30;99.90
16966;DHT22;8599;47.852;12.070;2023-05-07T13:17:57;22.90;99.90
16966;DHT22;8599;47.852;12.070;2023-05-07T13:20:24;23.00;99.90
16966;DHT22;8599;47.852;12.070;2023-05-07T13:22:50;22.70;99.90
16966;DHT22;8599;47.852;12.070;2023-05-07T13:25:17;22.70;99.90
16966;DHT22;8599;47.852;12.070;2023-05-07T13:27:44;22.80;99.90
16966;DHT22;8599;47.852;12.070;2023-05-07T13:30:11;22.80;99.90
16966;DHT22;8599;47.852;12.070;2023-05-07T13:32:38;22.90;99.90
16966;DHT22;8599;47.852;12.070;2023-05-07T13:35:07;22.80;99.90
16966;DHT22;8599;47.852;12.070;2023-05-07T13:37:34;22.60;99.90
16966;DHT22;8599;47.852;12.070;2023-05-07T13:40:01;22.30;99.90
16966;DHT22;8599;47.852;12.070;2023-05-07T13:42:28;22.20;99.90
16966;DHT22;8599;47.852;12.070;2023-05-07T13:44:56;22.20;99.90
16966;DHT22;8599;47.852;12.070;2023-05-07T13:47:23;22.30;99.90
16966;DHT22;8599;47.852;12.070;2023-05-07T13:49:50;22.30;99.90
16966;DHT22;8599;47.852;12.070;2023-05-07T13:52:18;22.40;99.90
16966;DHT22;8599;47.852;12.070;2023-05-07T13:54:45;22.40;99.90
16966;DHT22;8599;47.852;12.070;2023-05-07T13:57:12;22.50;99.90
16966;DHT22;8599;47.852;12.070;2023-05-07T13:59:39;22.80;99.90
16966;DHT22;8599;47.852;12.070;2023-05-07T14:02:06;23.10;99.90
16966;DHT22;8599;47.852;12.070;2023-05-07T14:04:33;23.40;99.90
16966;DHT22;8599;47.852;12.070;2023-05-07T14:07:00;23.90;99.90
16966;DHT22;8599;47.852;12.070;2023-05-07T14:09:28;24.10;99.90
16966;DHT22;8599;47.852;12.070;2023-05-07T14:11:55;23.90;99.90
16966;DHT22;8599;47.852;12.070;2023-05-07T14:14:21;23.60;99.90
16966;DHT22;8599;47.852;12.070;2023-05-07T14:16:48;23.30;99.90
16966;DHT22;8599;47.852;12.070;2023-05-07T14:19:15;23.00;99.90
16966;DHT22;8599;47.852;12.070;2023-05-07T14:21:42;22.80;99.90
16966;DHT22;8599;47.852;12.070;2023-05-07T14:24:09;22.50;99.90
16966;DHT22;8599;47.852;12.070;2023-05-07T14:26:37;22.30;99.90
16966;DHT22;8599;47.852;12.070;2023-05-07T14:29:04;22.20;99.90
16966;DHT22;8599;47.852;12.070;2023-05-07T14:31:30;22.10;99.90
16966;DHT22;8599;47.852;12.070;2023-05-07T14:33:58;22.10;99.90
16966;DHT22;8599;47.852;12.070;2023-05-07T14:36:25;22.10;99.90
16966;DHT22;8599;47.852;12.070;2023-05-07T14:38:53;22.10;99.90
16966;DHT22;8599;47.852;12.070;2023-05-07T14:41:20;22.10;99.90
16966;DHT22;8599;47.852;12.070;2023-05-07T14:43:48;22.10;99.90
16966;DHT22;8599;47.852;12.070;2023-05-07T14:46:16;22.00;99.90
16966;DHT22;8599;47.852;12.070;2023-05-07T14:48:44;21.90;99.90
16966;DHT22;8599;47.852;12.070;2023-05-07T14:51:11;21.90;99.90
16966;DHT22;8599;47.852;12.070;2023-05-07T14:53:38;21.90;99.90
16966;DHT22;8599;47.852;12.070;2023-05-07T14:56:05;21.80;99.90
16966;DHT22;8599;47.852;12.070;2023-05-07T14:58:32;21.70;99.90
16966;DHT22;8599;47.852;12.070;2023-05-07T15:01:01;21.70;99.90
16966;DHT22;8599;47.852;12.070;2023-05-07T15:03:28;21.70;99.90
16966;DHT22;8599;47.852;12.070;2023-05-07T15:05:55;21.70;99.90
16966;DHT22;8599;47.852;12.070;2023-05-07T15:08:22;21.60;99.90
16966;DHT22;8599;47.852;12.070;2023-05-07T15:10:48;21.50;99.90
16966;DHT22;8599;47.852;12.070;2023-05-07T15:13:15;21.50;99.90
16966;DHT22;8599;47.852;12.070;2023-05-07T15:15:43;21.50;99.90
16966;DHT22;8599;47.852;12.070;2023-05-07T15:18:11;21.40;99.90
16966;DHT22;8599;47.852;12.070;2023-05-07T15:20:38;21.40;99.90
16966;DHT22;8599;47.852;12.070;2023-05-07T15:23:06;21.30;99.90
16966;DHT22;8599;47.852;12.070;2023-05-07T15:25:35;21.40;99.90
16966;DHT22;8599;47.852;12.070;2023-05-07T15:28:02;21.20;99.90
16966;DHT22;8599;47.852;12.070;2023-05-07T15:30:29;21.20;99.90
16966;DHT22;8599;47.852;12.070;2023-05-07T15:32:56;21.10;99.90
16966;DHT22;8599;47.852;12.070;2023-05-07T15:35:24;21.10;99.90
16966;DHT22;8599;47.852;12.070;2023-05-07T15:37:53;21.00;99.90